메인 페이지
METAR-TAF:

METAR-TAF

공항 :

캄페체 주, 멕시코

위도: 19-51N, 경도: 090-33W, 고도: 5m

현재 날씨관측

예보는 2 시간 38분 전, 03:41시(UTC)에 발표되었습니다.
무풍
온도 29°C
습도 79%
기압 1009 hPa
시정: 11.3km
맑음

METAR: MMCP 260341Z 00000KT 7SM SKC 29/25 A2979 RMK HZY

시각: 01:19 (06:19 UTC)

예보

예보는 1 시간 37분 전, 04:42시(UTC)에 발표되었습니다.
예보 대상 시간: 26일 06시부터 27일 06시까지 (UTC)
5kt
시정: 10km
맑음
26일 1600시부터 (UTC)
남동10kt, 순간 최대 풍속 20kt
시정: 10km
고도 2000ft 상공 구름 보통
26일 2000시부터 (UTC)
10kt, 순간 최대 풍속 20kt
시정: 10km
맑음
27일 0300시부터 (UTC)
5kt
시정: 10km
맑음

TAF: MMCP 260442Z 2606/2706 08005KT P6SM SKC FM261600 13010G20KT P6SM SCT020 FM262000 36010G20KT P6SM SKC FM270300 08005KT P6SM SKC

4,000개 이상의 공항 관측 자료 및 예보 (METAR 및 TAF 보고).

지도상에서 검색 가능한 기상관측소가 노란 점과 빨간 점으로 표시되어 있습니다.

기상관측소 명을 보려면 표시 위로 마우스를 이동하세요.

날씨 관측과 예보를 보려면 클릭하세요.

지도 변경 : 확대하려면 엑스 표시가 있는 녹색 버튼, 축소하려면 빼기 표시가 있는 녹색 버튼, 다음 페이지의 지도를 보려면 녹색 화살표를 클릭하세요.


METAR-TAF: